Terminal Aerodrome Forecast
Issued by NWS

Home | Current Version | Previous Version | Text Only | Print | Product List | Glossary On
Versions: 1 2 3 4 5 6 7 8 9 10 11 12 13 14 15 16 17 18 19 20
000
FTUS41 KBOX 301736
TAFBED
TAF
KBED 301736Z 3018/3118 34005KT P6SM SKC
     FM311300 VRB03KT 2SM -SN OVC020
     FM311600 07004KT 1SM -SN OVC020=

USA.gov is the U.S. government's official web portal to all federal, state and local government web resources and services.